createdAt,value
2024-03-05T00:03:46.074Z,99804.39
2024-03-05T00:07:54.482Z,99803.39
2024-03-05T00:12:03.488Z,99815.39
2024-03-05T00:16:11.604Z,99820.87
2024-03-05T00:20:21.314Z,99825.52
2024-03-05T00:24:29.846Z,99820.45
2024-03-05T00:28:39.019Z,99823.10
2024-03-05T00:32:46.703Z,99819.11
2024-03-05T00:36:55.229Z,99823.86
2024-03-05T00:41:03.747Z,99826.67
2024-03-05T00:45:13.839Z,99827.85
2024-03-05T00:49:24.931Z,99829.21
2024-03-05T00:53:33.185Z,99831.45
2024-03-05T00:57:41.620Z,99835.04
2024-03-05T01:01:49.562Z,99837.64
2024-03-05T01:05:57.660Z,99841.00
2024-03-05T01:10:06.632Z,99842.52
2024-03-05T01:14:15.647Z,99838.73
2024-03-05T01:18:25.589Z,99839.42
2024-03-05T01:22:33.951Z,99845.23
2024-03-05T01:26:45.310Z,99840.64
2024-03-05T01:30:52.826Z,99837.25
2024-03-05T01:35:03.449Z,99837.00
2024-03-05T01:39:11.344Z,99840.79
2024-03-05T01:43:22.360Z,99840.64
2024-03-05T01:47:30.830Z,99845.70
2024-03-05T01:51:38.893Z,99847.90
2024-03-05T01:55:48.397Z,99852.20
2024-03-05T01:59:57.178Z,99853.40
2024-03-05T02:04:05.526Z,99854.10
2024-03-05T02:08:18.159Z,99856.02
2024-03-05T02:12:27.336Z,99860.45
2024-03-05T02:16:35.654Z,99857.71
2024-03-05T02:20:43.679Z,99858.23
2024-03-05T02:24:51.130Z,99858.50
2024-03-05T02:29:00.256Z,99857.75
2024-03-05T02:33:09.106Z,99860.30
2024-03-05T02:37:17.983Z,99863.94
2024-03-05T02:41:25.902Z,99863.45
2024-03-05T02:45:35.377Z,99867.94
2024-03-05T02:49:43.199Z,99867.65
2024-03-05T02:53:51.473Z,99867.96
2024-03-05T02:57:59.774Z,99872.81
2024-03-05T03:02:09.064Z,99875.40
2024-03-05T03:06:21.088Z,99877.61
2024-03-05T03:10:29.152Z,99882.46
2024-03-05T03:14:37.268Z,99884.48
2024-03-05T03:18:47.429Z,99883.66
2024-03-05T03:22:55.402Z,99878.92
2024-03-05T03:27:04.631Z,99876.77
2024-03-05T03:31:14.490Z,99881.01
2024-03-05T03:35:22.773Z,99885.27
2024-03-05T03:39:30.808Z,99889.83
2024-03-05T03:43:39.213Z,99893.42
2024-03-05T03:47:48.356Z,99893.83
2024-03-05T03:51:56.896Z,99897.22
2024-03-05T03:56:07.530Z,99900.90
2024-03-05T04:00:20.242Z,99901.90
2024-03-05T04:04:28.875Z,99902.44
2024-03-05T04:08:36.976Z,99903.61
2024-03-05T04:12:44.820Z,99901.73
2024-03-05T04:16:53.726Z,99902.29
2024-03-05T04:21:01.937Z,99902.14
2024-03-05T04:25:10.834Z,99905.87
2024-03-05T04:29:21.194Z,99909.70
2024-03-05T04:33:29.643Z,99913.54
2024-03-05T04:37:38.624Z,99915.73
2024-03-05T04:41:49.846Z,99917.39
2024-03-05T04:45:58.252Z,99920.40
2024-03-05T04:50:07.607Z,99923.45
2024-03-05T04:54:16.161Z,99928.19
2024-03-05T04:58:26.865Z,99929.87
2024-03-05T05:02:34.492Z,99930.82
2024-03-05T05:06:42.540Z,99931.98
2024-03-05T05:10:50.807Z,99932.71
2024-03-05T05:14:58.979Z,99930.57
2024-03-05T05:19:07.025Z,99934.19
2024-03-05T05:23:17.294Z,99933.49
2024-03-05T05:27:25.226Z,99936.45
2024-03-05T05:31:33.042Z,99936.26
2024-03-05T05:35:41.534Z,99938.80
2024-03-05T05:39:49.731Z,99944.40
2024-03-05T05:43:57.904Z,99949.75
2024-03-05T05:48:06.174Z,99952.01
2024-03-05T05:52:14.129Z,99953.23
2024-03-05T05:56:22.063Z,99955.88
2024-03-05T06:00:38.178Z,99959.20
2024-03-05T06:04:47.368Z,99965.61
2024-03-05T06:08:55.356Z,99964.21
2024-03-05T06:13:03.078Z,99965.88
2024-03-05T06:17:11.080Z,99970.98
2024-03-05T06:21:19.438Z,99977.32
2024-03-05T06:25:28.908Z,99985.84
2024-03-05T06:29:40.888Z,99992.13
2024-03-05T06:33:49.061Z,99985.33
2024-03-05T06:37:59.128Z,99984.75
2024-03-05T06:42:09.452Z,99987.83
2024-03-05T06:46:19.230Z,99996.41
2024-03-05T06:50:35.654Z,100001.74
2024-03-05T06:55:00.868Z,100004.19
2024-03-05T06:59:11.690Z,100010.86
2024-03-05T07:03:20.119Z,100005.98
2024-03-05T07:07:29.716Z,100010.15
2024-03-05T07:11:37.977Z,100014.09
2024-03-05T07:15:45.643Z,100017.78
2024-03-05T07:19:53.817Z,100023.30
2024-03-05T07:24:01.784Z,100024.27
2024-03-05T07:28:11.082Z,100021.95
2024-03-05T07:32:18.732Z,100027.02
2024-03-05T07:36:26.673Z,100029.77
2024-03-05T07:40:33.971Z,100033.15
2024-03-05T07:44:41.803Z,100036.08
2024-03-05T07:48:49.981Z,100035.91
2024-03-05T07:52:58.944Z,100035.53
2024-03-05T07:57:07.317Z,100042.75
2024-03-05T08:01:14.740Z,100043.67
2024-03-05T08:05:24.673Z,100045.77
2024-03-05T08:09:32.334Z,100043.48
2024-03-05T08:13:40.677Z,100044.83
2024-03-05T08:17:49.919Z,100042.62
2024-03-05T08:21:57.373Z,100047.04
2024-03-05T08:26:06.532Z,100046.17
2024-03-05T08:30:17.463Z,100047.99
2024-03-05T08:34:25.856Z,100048.23
2024-03-05T08:38:34.363Z,100049.71
2024-03-05T08:42:43.834Z,100049.41
2024-03-05T08:46:51.621Z,100045.62
2024-03-05T08:51:00.265Z,100046.10
2024-03-05T08:55:09.972Z,100050.79
2024-03-05T08:59:17.805Z,100050.52
2024-03-05T09:03:25.375Z,100045.89
2024-03-05T09:07:33.610Z,100040.19
2024-03-05T09:11:41.184Z,100044.30
2024-03-05T09:15:48.933Z,100044.67
2024-03-05T09:19:57.971Z,100046.81
2024-03-05T09:24:07.728Z,100048.47
2024-03-05T09:28:18.031Z,100046.84
2024-03-05T09:32:25.819Z,100047.20
2024-03-05T09:36:36.775Z,100045.26
2024-03-05T09:40:46.209Z,100042.36
2024-03-05T09:44:56.526Z,100043.38
2024-03-05T09:49:11.312Z,100054.81
2024-03-05T09:53:23.912Z,100052.59
2024-03-05T09:57:34.647Z,100057.00
2024-03-05T10:01:45.416Z,100059.59
2024-03-05T10:05:53.676Z,100062.73
2024-03-05T10:10:13.391Z,100072.41
2024-03-05T10:14:22.345Z,100073.67
2024-03-05T10:18:35.614Z,100072.80
2024-03-05T10:22:43.345Z,100075.70
2024-03-05T10:26:50.912Z,100078.63
2024-03-05T10:31:06.309Z,100082.23
2024-03-05T10:35:14.164Z,100086.54
2024-03-05T10:39:23.811Z,100086.09
2024-03-05T10:43:36.512Z,100083.38
2024-03-05T10:47:44.875Z,100085.83
2024-03-05T10:51:54.545Z,100086.94
2024-03-05T10:56:02.404Z,100080.69
2024-03-05T11:00:16.431Z,100077.11
2024-03-05T11:04:27.421Z,100080.03
2024-03-05T11:08:37.255Z,100079.93
2024-03-05T11:12:46.024Z,100080.21
2024-03-05T11:17:05.141Z,100088.64
2024-03-05T11:21:14.027Z,100087.77
2024-03-05T11:25:35.303Z,100090.72
2024-03-05T11:29:43.588Z,100093.06
2024-03-05T11:34:13.585Z,100094.07
2024-03-05T11:38:22.069Z,100100.56
2024-03-05T11:42:29.877Z,100104.29
2024-03-05T11:46:45.282Z,100108.54
2024-03-05T11:50:57.017Z,100111.45
2024-03-05T11:55:07.333Z,100110.96
2024-03-05T11:59:15.419Z,100109.17
2024-03-05T12:03:25.606Z,100108.20
2024-03-05T12:07:34.874Z,100108.91
2024-03-05T12:11:42.799Z,100119.36
2024-03-05T12:15:50.618Z,100122.23
2024-03-05T12:20:10.279Z,100125.08
2024-03-05T12:24:19.042Z,100128.77
2024-03-05T12:28:28.389Z,100131.00
2024-03-05T12:32:38.545Z,100135.05
2024-03-05T12:36:47.003Z,100135.09
2024-03-05T12:41:04.194Z,100140.48
2024-03-05T12:45:16.279Z,100137.45
2024-03-05T12:49:25.301Z,100140.26
2024-03-05T12:53:33.305Z,100139.63
2024-03-05T12:57:44.544Z,100142.89
2024-03-05T13:01:57.888Z,100140.23
2024-03-05T13:06:06.211Z,100136.16
2024-03-05T13:10:14.349Z,100133.73
2024-03-05T13:14:24.516Z,100133.96
2024-03-05T13:18:32.747Z,100139.48
2024-03-05T13:22:40.432Z,100143.00
2024-03-05T13:26:49.186Z,100157.41
2024-03-05T13:30:56.871Z,100161.59
2024-03-05T13:35:08.652Z,100159.41
2024-03-05T13:39:23.751Z,100163.05
2024-03-05T13:43:31.491Z,100166.64
2024-03-05T13:47:41.020Z,100168.92
2024-03-05T13:51:49.058Z,100175.52
2024-03-05T13:55:57.208Z,100174.92
2024-03-05T14:00:10.389Z,100175.20
2024-03-05T14:04:22.581Z,100174.03
2024-03-05T14:08:32.715Z,100172.29
2024-03-05T14:12:42.899Z,100168.14
2024-03-05T14:16:51.149Z,100165.91
2024-03-05T14:20:59.255Z,100168.13
2024-03-05T14:25:09.686Z,100180.33
2024-03-05T14:29:17.124Z,100189.63
2024-03-05T14:33:24.922Z,100183.48
2024-03-05T14:37:33.641Z,100184.17
2024-03-05T14:41:41.702Z,100183.95
2024-03-05T14:45:50.933Z,100183.24
2024-03-05T14:49:58.796Z,100188.58
2024-03-05T14:54:08.470Z,100195.28
2024-03-05T14:58:18.751Z,100197.51
2024-03-05T15:02:28.102Z,100200.86
2024-03-05T15:06:36.211Z,100200.95
2024-03-05T15:10:45.566Z,100207.23
2024-03-05T15:14:53.221Z,100213.13
2024-03-05T15:19:01.924Z,100221.55
2024-03-05T15:23:11.885Z,100231.48
2024-03-05T15:27:20.074Z,100236.58
2024-03-05T15:31:27.993Z,100235.41
2024-03-05T15:35:35.480Z,100244.88
2024-03-05T15:39:43.065Z,100246.77
2024-03-05T15:43:50.962Z,100249.56
2024-03-05T15:48:12.940Z,100261.11
2024-03-05T15:52:21.281Z,100267.64
2024-03-05T15:56:46.782Z,100269.02
2024-03-05T16:00:55.402Z,100270.54
2024-03-05T16:05:17.609Z,100277.48
2024-03-05T16:09:33.336Z,100283.31
2024-03-05T16:13:41.460Z,100294.83
2024-03-05T16:17:51.153Z,100296.52
2024-03-05T16:22:01.437Z,100297.60
2024-03-05T16:26:11.349Z,100299.74
2024-03-05T16:30:20.305Z,100300.42
2024-03-05T16:34:28.337Z,100304.30
2024-03-05T16:38:37.275Z,100307.63
2024-03-05T16:42:45.960Z,100316.45
2024-03-05T16:46:55.093Z,100331.04
2024-03-05T16:51:03.757Z,100327.63
2024-03-05T16:55:14.942Z,100331.51
2024-03-05T16:59:24.127Z,100335.08
2024-03-05T17:03:35.768Z,100337.31
2024-03-05T17:07:44.274Z,100339.45
2024-03-05T17:11:52.532Z,100346.48
2024-03-05T17:16:01.694Z,100349.70
2024-03-05T17:20:14.971Z,100358.10
2024-03-05T17:24:23.597Z,100358.95
2024-03-05T17:28:31.294Z,100362.61
2024-03-05T17:32:39.133Z,100366.97
2024-03-05T17:36:46.869Z,100369.55
2024-03-05T17:40:55.469Z,100373.08
2024-03-05T17:45:06.260Z,100369.10
2024-03-05T17:49:14.104Z,100379.80
2024-03-05T17:53:22.833Z,100375.67
2024-03-05T17:57:33.029Z,100377.72
2024-03-05T18:01:44.023Z,100378.82
2024-03-05T18:05:54.011Z,100382.75
2024-03-05T18:10:02.738Z,100384.55
2024-03-05T18:14:11.512Z,100386.52
2024-03-05T18:18:20.060Z,100392.34
2024-03-05T18:22:30.471Z,100397.81
2024-03-05T18:26:40.258Z,100400.51
2024-03-05T18:30:49.195Z,100401.15
2024-03-05T18:34:56.826Z,100403.63
2024-03-05T18:39:09.506Z,100407.08
2024-03-05T18:43:20.748Z,100406.06
2024-03-05T18:47:28.881Z,100404.55
2024-03-05T18:51:37.102Z,100407.76
2024-03-05T18:55:46.055Z,100416.23
2024-03-05T18:59:57.631Z,100418.14
2024-03-05T19:04:06.858Z,100413.94
2024-03-05T19:08:15.928Z,100417.24
2024-03-05T19:12:23.667Z,100420.17
2024-03-05T19:16:31.482Z,100418.56
2024-03-05T19:20:39.997Z,100427.75
2024-03-05T19:24:49.349Z,100432.52
2024-03-05T19:28:58.776Z,100435.81
2024-03-05T19:33:17.385Z,100439.21
2024-03-05T19:37:24.958Z,100445.56
2024-03-05T19:41:34.441Z,100445.33
2024-03-05T19:45:42.705Z,100442.23
2024-03-05T19:49:50.967Z,100447.58
2024-03-05T19:54:02.011Z,100451.41
2024-03-05T19:58:11.747Z,100448.29
2024-03-05T20:02:19.502Z,100454.89
2024-03-05T20:06:28.428Z,100456.80
2024-03-05T20:10:38.560Z,100460.64
2024-03-05T20:14:46.670Z,100464.36
2024-03-05T20:18:55.003Z,100464.52
2024-03-05T20:23:04.283Z,100463.04
2024-03-05T20:27:12.036Z,100468.14
2024-03-05T20:31:21.846Z,100458.03
2024-03-05T20:35:29.438Z,100456.38
2024-03-05T20:39:37.303Z,100456.65
2024-03-05T20:43:47.664Z,100462.23
2024-03-05T20:47:55.591Z,100470.13
2024-03-05T20:52:03.688Z,100475.75
2024-03-05T20:56:12.756Z,100475.13
2024-03-05T21:00:21.433Z,100476.55
2024-03-05T21:04:32.366Z,100480.02
2024-03-05T21:08:39.722Z,100483.32
2024-03-05T21:12:48.093Z,100485.73
2024-03-05T21:16:56.632Z,100487.27
2024-03-05T21:21:04.754Z,100486.28
2024-03-05T21:25:12.789Z,100487.02
2024-03-05T21:29:21.667Z,100486.20
2024-03-05T21:33:29.786Z,100489.71
2024-03-05T21:37:39.597Z,100492.08
2024-03-05T21:41:48.615Z,100489.73
2024-03-05T21:45:56.880Z,100490.65
2024-03-05T21:50:04.728Z,100487.94
2024-03-05T21:54:12.470Z,100495.14
2024-03-05T21:58:20.224Z,100495.23
2024-03-05T22:02:29.910Z,100502.73
2024-03-05T22:06:37.695Z,100503.04
2024-03-05T22:10:45.243Z,100506.96
2024-03-05T22:14:52.958Z,100508.48
2024-03-05T22:19:01.162Z,100514.04
2024-03-05T22:23:13.356Z,100519.61
2024-03-05T22:27:21.237Z,100524.19
2024-03-05T22:31:31.348Z,100527.02
2024-03-05T22:35:40.113Z,100526.28
2024-03-05T22:39:48.821Z,100533.81
2024-03-05T22:43:56.454Z,100538.63
2024-03-05T22:48:07.628Z,100538.08
2024-03-05T22:52:15.882Z,100544.07
2024-03-05T22:56:24.485Z,100541.65
2024-03-05T23:00:37.461Z,100542.27
2024-03-05T23:04:45.165Z,100547.29
2024-03-05T23:08:52.954Z,100552.50
2024-03-05T23:13:01.245Z,100552.17
2024-03-05T23:17:12.653Z,100551.23
2024-03-05T23:21:20.826Z,100553.70
2024-03-05T23:25:28.906Z,100556.42
2024-03-05T23:29:37.277Z,100558.59
2024-03-05T23:33:45.230Z,100560.04
2024-03-05T23:37:52.972Z,100559.44
2024-03-05T23:42:01.622Z,100559.25
2024-03-05T23:46:10.221Z,100561.79
2024-03-05T23:50:18.734Z,100562.45
2024-03-05T23:54:27.282Z,100561.61
2024-03-05T23:58:35.470Z,100558.56
